»·PEaware :: SWA1097 KSFO-KSNA

SWA1097 :: KSFO-KSNA

FLIGHT INFORMATION

Flight Status: Arrived
Operator:
Southwest Airlines
More flights by this operator :: More flights under this callsign
Pilot: Adam A. (5112)
Aircraft: BOEING 737-300
(B733)
More flights by this aircraft type
Origin: KSFO San Francisco Intl
United States
Destination: KSNA John Wayne-Orange Co
United States
More flights between these airports :: More routes between these airports
Route: +OFFSH1 MCKEY DAISY BENET SXC
File this flight plan on PilotEdge
Remarks:
Altitude:
(Current/Filed)
39,000ft
Speed:
(Current/Filed)
452kts
Departed: 23-Nov-16 05:08 PM
Arrived: 23-Nov-16 06:24 PM
Distance/Time
Traveled:
323nm/1:16
Distance/Time
To Go:
Arrived

Flight Plot

Page will automatically refresh every two minutes.

Flight plan parsing failed; only flown route is shown


Map Options




Map Legend


Flown Route
Filed Route
Departure Airport
Arrival Airport
Navaid (VOR, NDB)
Fix

Horizontal Profiles

Position Reports

Time Latitude Longitude Heading Altitude Ground
Speed
23-Nov-16 16:07 37.612265 -122.384119 0 20ft 0kts
23-Nov-16 16:08 37.612265 -122.384119 30 20ft 0kts
23-Nov-16 16:09 37.612265 -122.384119 30 20ft 0kts
23-Nov-16 16:10 37.612265 -122.384119 30 20ft 0kts
23-Nov-16 16:11 37.612265 -122.384119 30 20ft 0kts
23-Nov-16 16:12 37.612265 -122.384119 30 20ft 0kts
23-Nov-16 16:13 37.612265 -122.384119 30 20ft 0kts
23-Nov-16 16:14 37.612265 -122.384119 30 20ft 0kts
23-Nov-16 16:15 37.612265 -122.384119 30 20ft 0kts
23-Nov-16 16:16 37.612265 -122.384119 30 20ft 0kts
23-Nov-16 16:17 37.612265 -122.384119 30 20ft 0kts
23-Nov-16 16:18 37.612265 -122.384119 30 20ft 0kts
23-Nov-16 16:19 37.612265 -122.384119 30 20ft 0kts
23-Nov-16 16:20 37.612265 -122.384119 30 20ft 0kts
23-Nov-16 16:21 37.612265 -122.384119 30 20ft 0kts
23-Nov-16 16:22 37.612265 -122.384119 30 20ft 0kts
23-Nov-16 16:23 37.612265 -122.384119 30 20ft 0kts
23-Nov-16 16:24 37.612265 -122.384119 30 20ft 0kts
23-Nov-16 16:25 37.612265 -122.384119 30 20ft 0kts
23-Nov-16 16:26 37.612265 -122.384119 30 20ft 0kts
23-Nov-16 16:27 37.612265 -122.384119 30 20ft 0kts
23-Nov-16 16:28 37.612265 -122.384119 30 20ft 0kts
23-Nov-16 16:29 37.612265 -122.384119 30 20ft 0kts
23-Nov-16 16:30 37.612265 -122.384119 30 20ft 0kts
23-Nov-16 16:31 37.612265 -122.384119 30 20ft 0kts
23-Nov-16 16:32 37.612265 -122.384119 30 20ft 0kts
23-Nov-16 16:33 37.612265 -122.384119 30 20ft 0kts
23-Nov-16 16:34 37.612265 -122.384119 30 20ft 0kts
23-Nov-16 16:35 37.612265 -122.384119 30 20ft 0kts
23-Nov-16 16:36 37.612265 -122.384119 30 20ft 0kts
23-Nov-16 16:37 37.612265 -122.384119 30 20ft 0kts
23-Nov-16 16:38 37.612265 -122.384119 30 20ft 0kts
23-Nov-16 16:39 37.612265 -122.384119 30 20ft 0kts
23-Nov-16 16:40 37.612265 -122.384119 30 20ft 0kts
23-Nov-16 16:41 37.612265 -122.384119 30 20ft 0kts
23-Nov-16 16:42 37.612265 -122.384119 30 20ft 0kts
23-Nov-16 16:43 37.612265 -122.384119 30 20ft 0kts
23-Nov-16 16:44 37.611862 -122.384504 70 20ft 0kts
23-Nov-16 16:45 37.611892 -122.384795 113 20ft 0kts
23-Nov-16 16:46 37.611892 -122.384795 113 20ft 0kts
23-Nov-16 16:47 37.611892 -122.384795 113 20ft 0kts
23-Nov-16 16:48 37.611892 -122.384795 113 20ft 0kts
23-Nov-16 16:49 37.611472 -122.384198 121 20ft 6kts
23-Nov-16 16:50 37.611401 -122.384019 111 20ft 0kts
23-Nov-16 16:51 37.611401 -122.384019 111 20ft 0kts
23-Nov-16 16:52 37.611401 -122.384019 111 20ft 0kts
23-Nov-16 16:53 37.611401 -122.384019 111 20ft 0kts
23-Nov-16 16:54 37.611401 -122.384019 111 20ft 0kts
23-Nov-16 16:55 37.611292 -122.383570 94 20ft 11kts
23-Nov-16 16:56 37.616562 -122.379676 40 20ft 15kts
23-Nov-16 16:57 37.616268 -122.373858 95 20ft 25kts
23-Nov-16 16:58 37.612934 -122.366026 118 20ft 26kts
23-Nov-16 16:59 37.610504 -122.359987 86 20ft 11kts
23-Nov-16 17:00 37.612629 -122.360568 297 20ft 22kts
23-Nov-16 17:01 37.630965 -122.399250 301 1376ft 189kts
23-Nov-16 17:02 37.653563 -122.465580 266 2328ft 212kts
23-Nov-16 17:03 37.626219 -122.531610 233 5074ft 233kts
23-Nov-16 17:04 37.588153 -122.591783 226 5908ft 233kts
23-Nov-16 17:05 37.533625 -122.636501 217 8418ft 240kts
23-Nov-16 17:06 37.468664 -122.650231 183 10887ft 265kts
23-Nov-16 17:07 37.395961 -122.649318 185 14029ft 275kts
23-Nov-16 17:08 37.316987 -122.649262 186 16210ft 320kts
23-Nov-16 17:09 37.221050 -122.646147 180 18615ft 361kts
23-Nov-16 17:10 37.115575 -122.617198 171 19055ft 406kts
23-Nov-16 17:11 37.007544 -122.586073 173 19092ft 404kts
23-Nov-16 17:12 36.897143 -122.554100 174 19394ft 414kts
23-Nov-16 17:13 36.791635 -122.526259 175 21136ft 418kts
23-Nov-16 17:14 36.677958 -122.496748 177 23799ft 426kts
23-Nov-16 17:15 36.609511 -122.479104 177 25149ft 434kts
23-Nov-16 17:16 36.492764 -122.448911 178 27449ft 441kts
23-Nov-16 17:17 36.384424 -122.391031 136 30661ft 469kts
23-Nov-16 17:18 36.308174 -122.268650 141 33365ft 442kts
23-Nov-16 17:19 36.231780 -122.157451 143 35650ft 419kts
23-Nov-16 17:20 36.163786 -122.058806 143 37183ft 406kts
23-Nov-16 17:21 36.094479 -121.958791 142 37311ft 430kts
23-Nov-16 17:22 36.016120 -121.845087 142 37346ft 454kts
23-Nov-16 17:23 35.934247 -121.726938 142 37385ft 459kts
23-Nov-16 17:24 35.853042 -121.610513 143 37300ft 447kts
23-Nov-16 17:25 35.771340 -121.494046 142 37354ft 463kts
23-Nov-16 17:26 35.689821 -121.377775 142 37244ft 438kts
23-Nov-16 17:27 35.623558 -121.284136 142 37252ft 449kts
23-Nov-16 17:28 35.541591 -121.168111 143 37325ft 457kts
23-Nov-16 17:29 35.457088 -121.060819 159 37283ft 422kts
23-Nov-16 17:30 35.359102 -120.984384 160 37319ft 425kts
23-Nov-16 17:31 35.262298 -120.908139 160 37269ft 419kts
23-Nov-16 17:32 35.166049 -120.832068 158 37274ft 426kts
23-Nov-16 17:33 35.071901 -120.757354 161 37276ft 416kts
23-Nov-16 17:34 34.975686 -120.682324 159 37288ft 420kts
23-Nov-16 17:35 34.878945 -120.606985 158 37270ft 415kts
23-Nov-16 17:36 34.782819 -120.532342 158 37243ft 409kts
23-Nov-16 17:37 34.686946 -120.458214 158 37256ft 416kts
23-Nov-16 17:38 34.589801 -120.383232 159 35862ft 415kts
23-Nov-16 17:39 34.495399 -120.310539 159 34066ft 399kts
23-Nov-16 17:40 34.399708 -120.237203 157 32328ft 422kts
23-Nov-16 17:41 34.301771 -120.162207 157 30543ft 427kts
23-Nov-16 17:42 34.223597 -120.064241 125 28753ft 457kts
23-Nov-16 17:43 34.158206 -119.932833 126 26880ft 462kts
23-Nov-16 17:44 34.093174 -119.803935 125 24814ft 454kts
23-Nov-16 17:45 34.028509 -119.677695 123 22873ft 445kts
23-Nov-16 17:46 33.965964 -119.555784 123 22652ft 451kts
23-Nov-16 17:47 33.903083 -119.433234 123 22117ft 439kts
23-Nov-16 17:48 33.840466 -119.311591 122 20693ft 446kts
23-Nov-16 17:49 33.777188 -119.189080 121 18148ft 423kts
23-Nov-16 17:50 33.717226 -119.073410 120 15665ft 407kts
23-Nov-16 17:51 33.659122 -118.961665 119 13444ft 389kts
23-Nov-16 17:52 33.604725 -118.856801 119 11377ft 370kts
23-Nov-16 17:53 33.553138 -118.756006 120 10699ft 358kts
23-Nov-16 17:54 33.500742 -118.655891 120 10221ft 355kts
23-Nov-16 17:55 33.454482 -118.567953 120 10377ft 357kts
23-Nov-16 17:56 33.452653 -118.460146 72 9891ft 338kts
23-Nov-16 17:57 33.472500 -118.361557 72 9126ft 280kts
23-Nov-16 17:58 33.490164 -118.273938 72 8230ft 273kts
23-Nov-16 17:59 33.524967 -118.199262 42 7242ft 262kts
23-Nov-16 18:00 33.573890 -118.138378 42 6269ft 259kts
23-Nov-16 18:01 33.622451 -118.079455 42 5265ft 245kts
23-Nov-16 18:02 33.665844 -118.027503 42 5000ft 198kts
23-Nov-16 18:03 33.707251 -117.985395 28 5006ft 200kts
23-Nov-16 18:04 33.751717 -117.952426 28 5002ft 196kts
23-Nov-16 18:05 33.793839 -117.915142 60 4099ft 188kts
23-Nov-16 18:06 33.789745 -117.862018 113 3033ft 169kts
23-Nov-16 18:07 33.768254 -117.818332 153 2750ft 154kts
23-Nov-16 18:08 33.730856 -117.834247 208 1737ft 149kts
23-Nov-16 18:09 33.696005 -117.855940 209 454ft 135kts
23-Nov-16 18:10 33.663244 -117.876734 210 200ft 129kts
23-Nov-16 18:11 33.625102 -117.911533 260 2204ft 164kts
23-Nov-16 18:12 33.650032 -117.954302 343 1451ft 167kts
23-Nov-16 18:13 33.689896 -117.936601 32 1089ft 145kts
23-Nov-16 18:14 33.724003 -117.907970 42 1013ft 151kts
23-Nov-16 18:15 33.716207 -117.863911 123 670ft 151kts
23-Nov-16 18:16 33.682087 -117.864854 206 155ft 133kts
23-Nov-16 18:17 33.666725 -117.874536 24 63ft 23kts
23-Nov-16 18:18 33.668655 -117.871414 42 63ft 18kts
23-Nov-16 18:19 33.674704 -117.866170 30 63ft 18kts

Navigation Log

Ident Type
Flight plan parsing failed, navigation log unavailable